Decoded Metar for LYVR (VRSAC in SERBIA) (IATA:N/A) | Meteo·Mobile Aviation Weather
aviador You're here:

LYVR Decoded Metar

VRSAC in SERBIA
Report Time2019-04-23 15:30:00
UTC Time2019-04-23 15:53:35
Flight Rules vfr VFR
Wind120° at 38 Gusting to 68 kt
W.Decomp.*RWY 16: 27.8 kt HW 25.9 kt LCW
RWY 19: 11.1 kt HW 36.3 kt LCW
Visibility9999 m
Phenomena:N/A
Clouds:N/A
Expected CloudBase > 4,400 ft AGL from Temp-Dew spread
CeilingNone
Temp13°C (ISA -1)
Dew Point02°C (47% RH)
AAT-2.4°C
QNH1015 hPa
Density Alt138 ft
Elevation279 ft
Report Wrong Elevation
Raw Report
METAR LYVR 231530Z 12038G68KT CAVOK 13/02 Q1015 NOSIG=

Extra information for LYVR:More info

Metar Taf Metar & Taf Last 4 Metars F.Rules Stats Wind Profile Meteogram Temp Stats Airport Information Weather charts Add Link Nearby VenuesMetar ALERT Operation Metar Decoded Social comments